createdAt,value
2019-02-19T00:04:32.154Z,0.30
2019-02-19T00:09:28.285Z,0.20
2019-02-19T00:14:26.754Z,0.20
2019-02-19T00:19:22.763Z,0.10
2019-02-19T00:24:18.835Z,0.10
2019-02-19T00:29:14.991Z,0.00
2019-02-19T00:34:11.031Z,-0.10
2019-02-19T00:39:07.264Z,-0.10
2019-02-19T00:44:03.262Z,-0.10
2019-02-19T00:48:59.583Z,-0.20
2019-02-19T00:53:55.901Z,-0.30
2019-02-19T00:58:52.553Z,-0.30
2019-02-19T01:03:48.599Z,-0.40
2019-02-19T01:08:47.579Z,-0.50
2019-02-19T01:13:52.763Z,-0.50
2019-02-19T01:18:49.001Z,-0.50
2019-02-19T01:23:44.890Z,-0.60
2019-02-19T01:28:41.174Z,-0.70
2019-02-19T01:33:37.221Z,-0.70
2019-02-19T01:38:33.856Z,-0.80
2019-02-19T01:43:30.281Z,-0.90
2019-02-19T01:48:26.427Z,-0.80
2019-02-19T01:53:22.382Z,-0.90
2019-02-19T01:58:18.275Z,-1.00
2019-02-19T02:03:15.658Z,-1.10
2019-02-19T02:08:11.805Z,-1.10
2019-02-19T02:13:08.193Z,-1.10
2019-02-19T02:18:04.473Z,-1.10
2019-02-19T02:23:00.265Z,-1.10
2019-02-19T02:27:56.411Z,-1.20
2019-02-19T02:32:52.486Z,-1.30
2019-02-19T02:37:48.663Z,-1.30
2019-02-19T02:42:44.659Z,-1.30
2019-02-19T02:47:40.901Z,-1.30
2019-02-19T02:52:37.117Z,-1.40
2019-02-19T02:57:33.068Z,-1.50
2019-02-19T03:02:29.494Z,-1.50
2019-02-19T03:07:33.413Z,-1.50
2019-02-19T03:12:32.763Z,-1.60
2019-02-19T03:17:28.501Z,-1.60
2019-02-19T03:22:24.348Z,-1.60
2019-02-19T03:27:20.208Z,-1.60
2019-02-19T03:32:15.956Z,-1.60
2019-02-19T03:37:11.729Z,-1.80
2019-02-19T03:42:07.487Z,-1.80
2019-02-19T03:47:03.384Z,-1.80
2019-02-19T03:51:59.201Z,-1.80
2019-02-19T03:56:54.958Z,-1.80
2019-02-19T04:01:50.941Z,-1.80
2019-02-19T04:06:46.694Z,-1.80
2019-02-19T04:11:42.415Z,-1.90
2019-02-19T04:16:38.483Z,-2.00
2019-02-19T04:21:35.244Z,-2.00
2019-02-19T04:26:31.434Z,-2.00
2019-02-19T04:31:27.107Z,-2.00
2019-02-19T04:36:22.843Z,-2.10
2019-02-19T04:41:18.583Z,-2.10
2019-02-19T04:46:14.635Z,-2.10
2019-02-19T04:51:11.393Z,-2.10
2019-02-19T04:56:07.140Z,-2.10
2019-02-19T05:01:02.962Z,-2.10
2019-02-19T05:05:58.718Z,-2.20
2019-02-19T05:10:54.796Z,-2.20
2019-02-19T05:15:53.950Z,-2.20
2019-02-19T05:20:49.743Z,-2.40
2019-02-19T05:25:47.004Z,-2.40
2019-02-19T05:30:46.252Z,-2.30
2019-02-19T05:35:42.048Z,-2.40
2019-02-19T05:40:37.834Z,-2.40
2019-02-19T05:45:33.591Z,-2.50
2019-02-19T05:50:29.313Z,-2.50
2019-02-19T05:55:28.055Z,-2.50
2019-02-19T06:00:23.747Z,-2.50
2019-02-19T06:05:19.486Z,-2.50
2019-02-19T06:10:15.206Z,-2.60
2019-02-19T06:15:12.675Z,-2.60
2019-02-19T06:20:09.122Z,-2.50
2019-02-19T06:25:05.174Z,-2.50
2019-02-19T06:30:01.150Z,-2.40
2019-02-19T06:34:56.925Z,-2.40
2019-02-19T06:40:11.626Z,-2.30
2019-02-19T06:45:09.596Z,-2.20
2019-02-19T06:50:15.096Z,-2.00
2019-02-19T06:55:28.831Z,-1.90
2019-02-19T07:00:25.805Z,-1.70
2019-02-19T07:05:35.554Z,-1.50
2019-02-19T07:10:33.596Z,-1.30
2019-02-19T07:15:29.371Z,-1.10
2019-02-19T07:20:25.204Z,-0.90
2019-02-19T07:25:21.256Z,-0.70
2019-02-19T07:30:17.015Z,-0.60
2019-02-19T07:35:12.922Z,-0.40
2019-02-19T07:40:08.958Z,-0.20
2019-02-19T07:45:04.905Z,0.00
2019-02-19T07:50:00.833Z,0.10
2019-02-19T07:54:57.562Z,0.30
2019-02-19T07:59:56.937Z,0.50
2019-02-19T08:04:55.922Z,0.60
2019-02-19T08:09:51.761Z,0.80
2019-02-19T08:14:47.499Z,1.00
2019-02-19T08:19:43.360Z,1.30
2019-02-19T08:24:39.134Z,1.50
2019-02-19T08:29:35.129Z,1.70
2019-02-19T08:34:30.881Z,2.00
2019-02-19T08:39:26.599Z,2.20
2019-02-19T08:44:22.354Z,2.50
2019-02-19T08:49:18.415Z,2.80
2019-02-19T08:54:14.199Z,3.10
2019-02-19T08:59:10.051Z,3.40
2019-02-19T09:04:08.488Z,3.80
2019-02-19T09:09:05.876Z,4.10
2019-02-19T09:14:01.588Z,4.50
2019-02-19T09:18:57.408Z,4.80
2019-02-19T09:23:53.180Z,5.10
2019-02-19T09:28:50.027Z,5.50
2019-02-19T09:33:45.835Z,5.90
2019-02-19T09:38:41.795Z,6.30
2019-02-19T09:43:37.689Z,6.70
2019-02-19T09:48:33.495Z,7.20
2019-02-19T09:53:29.291Z,7.70
2019-02-19T09:58:25.177Z,8.10
2019-02-19T10:03:21.285Z,8.70
2019-02-19T10:08:18.140Z,9.20
2019-02-19T10:13:13.965Z,9.60
2019-02-19T10:18:10.556Z,9.90
2019-02-19T10:23:09.222Z,10.30
2019-02-19T10:28:05.308Z,10.70
2019-02-19T10:33:01.138Z,11.20
2019-02-19T10:37:57.040Z,11.70
2019-02-19T10:42:52.918Z,12.20
2019-02-19T10:47:48.824Z,12.70
2019-02-19T10:52:45.979Z,13.00
2019-02-19T10:57:42.420Z,13.50
2019-02-19T11:02:38.212Z,13.90
2019-02-19T11:07:35.551Z,14.30
2019-02-19T11:12:31.334Z,14.70
2019-02-19T11:17:27.075Z,15.00
2019-02-19T11:22:22.970Z,15.30
2019-02-19T11:27:18.850Z,15.50
2019-02-19T11:32:14.680Z,15.70
2019-02-19T11:37:10.555Z,15.90
2019-02-19T11:42:06.293Z,16.20
2019-02-19T11:47:02.075Z,16.40
2019-02-19T11:52:00.518Z,16.50
2019-02-19T11:56:56.313Z,16.80
2019-02-19T12:01:52.416Z,17.20
2019-02-19T12:06:51.291Z,17.50
2019-02-19T12:11:47.100Z,17.80
2019-02-19T12:16:42.853Z,18.00
2019-02-19T12:21:39.717Z,18.20
2019-02-19T12:26:36.016Z,18.50
2019-02-19T12:31:31.874Z,18.80
2019-02-19T12:36:27.832Z,19.00
2019-02-19T12:41:23.552Z,19.40
2019-02-19T12:46:26.139Z,19.40
2019-02-19T12:51:26.422Z,19.60
2019-02-19T12:56:20.256Z,19.90
2019-02-19T13:01:16.142Z,20.20
2019-02-19T13:06:11.990Z,20.30
2019-02-19T13:11:07.768Z,20.30
2019-02-19T13:16:03.647Z,20.60
2019-02-19T13:20:59.463Z,20.80
2019-02-19T13:25:55.390Z,20.70
2019-02-19T13:30:51.151Z,20.90
2019-02-19T13:35:46.896Z,21.00
2019-02-19T13:40:42.621Z,21.20
2019-02-19T13:45:38.549Z,21.30
2019-02-19T13:50:34.494Z,21.40
2019-02-19T13:55:33.597Z,21.60
2019-02-19T14:00:31.021Z,21.90
2019-02-19T14:05:26.816Z,22.40
2019-02-19T14:10:22.539Z,22.70
2019-02-19T14:15:46.198Z,22.90
2019-02-19T14:21:09.662Z,23.20
2019-02-19T14:26:23.891Z,23.40
2019-02-19T14:31:50.671Z,23.60
2019-02-19T14:37:14.250Z,23.60
2019-02-19T14:42:28.974Z,23.90
2019-02-19T14:47:43.071Z,24.40
2019-02-19T14:52:54.478Z,24.40
2019-02-19T14:58:18.414Z,24.70
2019-02-19T15:03:42.638Z,24.50
2019-02-19T15:08:57.468Z,24.10
2019-02-19T15:14:17.880Z,23.10
2019-02-19T15:19:41.867Z,20.80
2019-02-19T15:25:05.861Z,18.70
2019-02-19T15:30:26.297Z,17.30
2019-02-19T15:35:34.421Z,16.60
2019-02-19T15:40:52.093Z,15.90
2019-02-19T15:46:24.153Z,15.40
2019-02-19T15:51:29.370Z,15.00
2019-02-19T15:56:33.292Z,14.60
2019-02-19T16:01:42.797Z,14.30
2019-02-19T16:07:00.221Z,13.90
2019-02-19T16:12:14.984Z,13.50
2019-02-19T16:17:25.299Z,13.20
2019-02-19T16:22:42.720Z,13.10
2019-02-19T16:27:57.967Z,13.00
2019-02-19T16:33:07.357Z,12.70
2019-02-19T16:38:16.176Z,12.40
2019-02-19T16:43:26.690Z,12.10
2019-02-19T16:48:41.454Z,11.60
2019-02-19T16:54:08.437Z,11.30
2019-02-19T16:59:19.708Z,11.10
2019-02-19T17:04:24.749Z,10.80
2019-02-19T17:09:31.455Z,10.50
2019-02-19T17:15:04.270Z,10.30
2019-02-19T17:20:28.802Z,10.10
2019-02-19T17:25:46.299Z,9.80
2019-02-19T17:31:10.822Z,9.50
2019-02-19T17:36:13.899Z,9.40
2019-02-19T17:41:36.319Z,9.10
2019-02-19T17:46:43.353Z,8.90
2019-02-19T17:51:57.065Z,8.70
2019-02-19T17:57:24.331Z,8.60
2019-02-19T18:02:44.390Z,8.30
2019-02-19T18:07:59.427Z,8.00
2019-02-19T18:13:32.971Z,7.80
2019-02-19T18:18:47.531Z,7.60
2019-02-19T18:23:44.965Z,7.40
2019-02-19T18:28:42.257Z,7.20
2019-02-19T18:33:39.246Z,7.10
2019-02-19T18:38:36.914Z,7.00
2019-02-19T18:43:36.547Z,6.90
2019-02-19T18:48:33.530Z,6.80
2019-02-19T18:53:30.990Z,6.50
2019-02-19T18:58:26.957Z,6.30
2019-02-19T19:03:22.962Z,6.20
2019-02-19T19:08:22.956Z,6.00
2019-02-19T19:13:18.821Z,5.90
2019-02-19T19:18:14.713Z,5.80
2019-02-19T19:23:10.588Z,5.70
2019-02-19T19:28:07.503Z,5.50
2019-02-19T19:33:03.336Z,5.20
2019-02-19T19:37:59.115Z,5.00
2019-02-19T19:42:54.904Z,4.80
2019-02-19T19:47:50.654Z,4.80
2019-02-19T19:52:47.188Z,4.70
2019-02-19T19:57:43.142Z,4.70
2019-02-19T20:02:41.922Z,4.50
2019-02-19T20:07:38.866Z,4.40
2019-02-19T20:12:36.030Z,4.20
2019-02-19T20:17:31.987Z,4.20
2019-02-19T20:22:27.917Z,4.10
2019-02-19T20:27:24.289Z,4.00
2019-02-19T20:32:20.260Z,3.90
2019-02-19T20:37:17.136Z,3.90
2019-02-19T20:42:15.201Z,3.80
2019-02-19T20:47:12.484Z,3.70
2019-02-19T20:52:08.530Z,3.50
2019-02-19T20:57:04.709Z,3.20
2019-02-19T21:02:01.579Z,3.20
2019-02-19T21:06:58.543Z,3.20
2019-02-19T21:12:01.060Z,3.10
2019-02-19T21:17:00.142Z,3.00
2019-02-19T21:21:56.348Z,2.80
2019-02-19T21:26:52.350Z,2.80
2019-02-19T21:31:48.735Z,2.80
2019-02-19T21:36:44.736Z,2.80
2019-02-19T21:41:42.794Z,2.60
2019-02-19T21:46:41.395Z,2.60
2019-02-19T21:51:37.849Z,2.50
2019-02-19T21:56:34.842Z,2.50
2019-02-19T22:01:30.686Z,2.30
2019-02-19T22:06:29.747Z,2.30
2019-02-19T22:11:25.461Z,2.30
2019-02-19T22:16:21.244Z,2.10
2019-02-19T22:21:38.924Z,1.90
2019-02-19T22:26:34.575Z,1.90
2019-02-19T22:31:31.412Z,1.80
2019-02-19T22:36:27.235Z,1.80
2019-02-19T22:41:25.416Z,1.80
2019-02-19T22:46:21.214Z,1.80
2019-02-19T22:51:17.080Z,1.80
2019-02-19T22:56:17.760Z,1.80
2019-02-19T23:01:23.332Z,1.70
2019-02-19T23:06:20.312Z,1.60
2019-02-19T23:11:16.271Z,1.50
2019-02-19T23:16:12.037Z,1.50
2019-02-19T23:21:07.785Z,1.40
2019-02-19T23:26:07.563Z,1.30
2019-02-19T23:31:03.487Z,1.30
2019-02-19T23:36:04.327Z,1.20
2019-02-19T23:41:00.561Z,1.20
2019-02-19T23:45:58.499Z,1.10
2019-02-19T23:50:54.319Z,1.10
2019-02-19T23:55:50.027Z,1.10
